sensor_id;sensor_type;location;lat;lon;timestamp;P1;durP1;ratioP1;P2;durP2;ratioP2
79373;SDS011;68844;53.128;17.958;2023-09-18T00:01:03;9.00;;;6.60;;
79373;SDS011;68844;53.128;17.958;2023-09-18T00:03:40;10.40;;;6.70;;
79373;SDS011;68844;53.128;17.958;2023-09-18T00:06:06;11.50;;;7.80;;
79373;SDS011;68844;53.128;17.958;2023-09-18T00:11:01;11.10;;;6.70;;
79373;SDS011;68844;53.128;17.958;2023-09-18T00:13:28;12.30;;;7.30;;
79373;SDS011;68844;53.128;17.958;2023-09-18T00:15:55;11.60;;;7.60;;
79373;SDS011;68844;53.128;17.958;2023-09-18T00:18:21;9.70;;;6.20;;
79373;SDS011;68844;53.128;17.958;2023-09-18T00:20:49;11.00;;;6.00;;
79373;SDS011;68844;53.128;17.958;2023-09-18T00:23:18;11.20;;;7.00;;
79373;SDS011;68844;53.128;17.958;2023-09-18T00:25:45;11.20;;;6.90;;
79373;SDS011;68844;53.128;17.958;2023-09-18T00:28:11;8.80;;;6.50;;
79373;SDS011;68844;53.128;17.958;2023-09-18T00:30:38;8.60;;;6.50;;
79373;SDS011;68844;53.128;17.958;2023-09-18T00:33:09;9.00;;;6.20;;
79373;SDS011;68844;53.128;17.958;2023-09-18T00:35:36;9.60;;;6.40;;
79373;SDS011;68844;53.128;17.958;2023-09-18T00:38:02;8.30;;;6.10;;
79373;SDS011;68844;53.128;17.958;2023-09-18T00:40:30;12.60;;;7.10;;
79373;SDS011;68844;53.128;17.958;2023-09-18T00:42:56;11.00;;;6.70;;
79373;SDS011;68844;53.128;17.958;2023-09-18T00:45:23;11.40;;;6.30;;
79373;SDS011;68844;53.128;17.958;2023-09-18T00:47:50;8.00;;;6.10;;
79373;SDS011;68844;53.128;17.958;2023-09-18T00:50:17;8.40;;;5.80;;
79373;SDS011;68844;53.128;17.958;2023-09-18T00:52:43;7.80;;;6.00;;
79373;SDS011;68844;53.128;17.958;2023-09-18T00:55:10;7.20;;;6.30;;
79373;SDS011;68844;53.128;17.958;2023-09-18T00:57:38;8.70;;;5.80;;
79373;SDS011;68844;53.128;17.958;2023-09-18T01:00:04;8.00;;;6.00;;
79373;SDS011;68844;53.128;17.958;2023-09-18T01:02:33;9.50;;;6.00;;
79373;SDS011;68844;53.128;17.958;2023-09-18T01:05:00;8.00;;;6.20;;
79373;SDS011;68844;53.128;17.958;2023-09-18T01:07:27;7.60;;;5.60;;
79373;SDS011;68844;53.128;17.958;2023-09-18T01:09:54;6.90;;;5.80;;
79373;SDS011;68844;53.128;17.958;2023-09-18T01:15:21;8.90;;;6.50;;
79373;SDS011;68844;53.128;17.958;2023-09-18T01:17:52;9.20;;;6.60;;
79373;SDS011;68844;53.128;17.958;2023-09-18T01:20:20;9.30;;;6.50;;
79373;SDS011;68844;53.128;17.958;2023-09-18T01:22:46;8.10;;;6.40;;
79373;SDS011;68844;53.128;17.958;2023-09-18T01:25:16;8.90;;;6.20;;
79373;SDS011;68844;53.128;17.958;2023-09-18T01:27:42;7.50;;;5.70;;
79373;SDS011;68844;53.128;17.958;2023-09-18T01:30:09;8.60;;;6.20;;
79373;SDS011;68844;53.128;17.958;2023-09-18T01:32:36;10.50;;;7.00;;
79373;SDS011;68844;53.128;17.958;2023-09-18T01:35:06;7.80;;;6.00;;
79373;SDS011;68844;53.128;17.958;2023-09-18T01:37:33;9.80;;;6.70;;
79373;SDS011;68844;53.128;17.958;2023-09-18T01:42:33;8.10;;;5.90;;
79373;SDS011;68844;53.128;17.958;2023-09-18T01:45:01;6.90;;;5.50;;
79373;SDS011;68844;53.128;17.958;2023-09-18T01:47:29;8.20;;;5.80;;
79373;SDS011;68844;53.128;17.958;2023-09-18T01:49:56;8.80;;;6.00;;
79373;SDS011;68844;53.128;17.958;2023-09-18T01:52:22;7.30;;;5.70;;
79373;SDS011;68844;53.128;17.958;2023-09-18T01:54:49;7.60;;;5.70;;
79373;SDS011;68844;53.128;17.958;2023-09-18T01:57:16;7.70;;;6.20;;
79373;SDS011;68844;53.128;17.958;2023-09-18T01:59:42;7.00;;;5.40;;
79373;SDS011;68844;53.128;17.958;2023-09-18T02:02:11;8.20;;;6.10;;
79373;SDS011;68844;53.128;17.958;2023-09-18T02:04:38;8.40;;;6.40;;
79373;SDS011;68844;53.128;17.958;2023-09-18T02:07:06;9.10;;;6.40;;
79373;SDS011;68844;53.128;17.958;2023-09-18T02:09:33;7.80;;;6.00;;
79373;SDS011;68844;53.128;17.958;2023-09-18T02:11:59;8.60;;;6.70;;
79373;SDS011;68844;53.128;17.958;2023-09-18T02:14:26;8.40;;;6.20;;
79373;SDS011;68844;53.128;17.958;2023-09-18T02:16:53;8.90;;;5.90;;
79373;SDS011;68844;53.128;17.958;2023-09-18T02:19:20;8.60;;;6.50;;
79373;SDS011;68844;53.128;17.958;2023-09-18T02:21:47;8.20;;;6.60;;
79373;SDS011;68844;53.128;17.958;2023-09-18T02:24:13;7.40;;;6.00;;
79373;SDS011;68844;53.128;17.958;2023-09-18T02:26:40;7.40;;;6.40;;
79373;SDS011;68844;53.128;17.958;2023-09-18T02:29:07;8.50;;;6.60;;
79373;SDS011;68844;53.128;17.958;2023-09-18T02:31:39;8.40;;;6.50;;
79373;SDS011;68844;53.128;17.958;2023-09-18T02:34:06;11.20;;;7.00;;
79373;SDS011;68844;53.128;17.958;2023-09-18T02:36:36;7.90;;;6.70;;
79373;SDS011;68844;53.128;17.958;2023-09-18T02:39:02;8.50;;;6.80;;
79373;SDS011;68844;53.128;17.958;2023-09-18T02:41:29;10.30;;;6.60;;
79373;SDS011;68844;53.128;17.958;2023-09-18T02:43:56;8.30;;;6.10;;
79373;SDS011;68844;53.128;17.958;2023-09-18T02:46:22;8.10;;;6.50;;
79373;SDS011;68844;53.128;17.958;2023-09-18T02:48:49;7.80;;;6.10;;
79373;SDS011;68844;53.128;17.958;2023-09-18T02:51:16;8.30;;;6.70;;
79373;SDS011;68844;53.128;17.958;2023-09-18T02:53:43;9.80;;;6.80;;
79373;SDS011;68844;53.128;17.958;2023-09-18T02:56:10;9.60;;;6.60;;
79373;SDS011;68844;53.128;17.958;2023-09-18T02:58:38;8.30;;;5.90;;
79373;SDS011;68844;53.128;17.958;2023-09-18T03:01:06;7.80;;;6.80;;
79373;SDS011;68844;53.128;17.958;2023-09-18T03:03:34;8.20;;;6.70;;
79373;SDS011;68844;53.128;17.958;2023-09-18T03:06:01;9.30;;;6.60;;
79373;SDS011;68844;53.128;17.958;2023-09-18T03:08:29;8.50;;;5.90;;
79373;SDS011;68844;53.128;17.958;2023-09-18T03:10:57;10.70;;;7.50;;
79373;SDS011;68844;53.128;17.958;2023-09-18T03:13:25;10.80;;;6.40;;
79373;SDS011;68844;53.128;17.958;2023-09-18T03:15:53;8.90;;;6.80;;
79373;SDS011;68844;53.128;17.958;2023-09-18T03:18:20;9.90;;;6.50;;
79373;SDS011;68844;53.128;17.958;2023-09-18T03:20:47;8.90;;;6.10;;
79373;SDS011;68844;53.128;17.958;2023-09-18T03:23:14;10.20;;;6.60;;
79373;SDS011;68844;53.128;17.958;2023-09-18T03:25:42;8.00;;;6.60;;
79373;SDS011;68844;53.128;17.958;2023-09-18T03:28:09;13.40;;;7.00;;
79373;SDS011;68844;53.128;17.958;2023-09-18T03:30:35;9.00;;;6.50;;
79373;SDS011;68844;53.128;17.958;2023-09-18T03:33:03;9.70;;;6.70;;
79373;SDS011;68844;53.128;17.958;2023-09-18T03:35:31;8.00;;;6.30;;
79373;SDS011;68844;53.128;17.958;2023-09-18T03:40:25;10.10;;;7.10;;
79373;SDS011;68844;53.128;17.958;2023-09-18T03:42:52;16.00;;;8.60;;
79373;SDS011;68844;53.128;17.958;2023-09-18T03:45:19;11.60;;;8.30;;
79373;SDS011;68844;53.128;17.958;2023-09-18T03:50:16;9.40;;;7.20;;
79373;SDS011;68844;53.128;17.958;2023-09-18T03:52:43;11.80;;;8.00;;
79373;SDS011;68844;53.128;17.958;2023-09-18T03:55:09;11.50;;;8.40;;
79373;SDS011;68844;53.128;17.958;2023-09-18T03:57:36;12.40;;;8.80;;
79373;SDS011;68844;53.128;17.958;2023-09-18T04:00:04;8.40;;;6.30;;
79373;SDS011;68844;53.128;17.958;2023-09-18T04:02:38;11.50;;;8.50;;
79373;SDS011;68844;53.128;17.958;2023-09-18T04:05:05;11.20;;;7.40;;
79373;SDS011;68844;53.128;17.958;2023-09-18T04:07:34;13.20;;;8.30;;
79373;SDS011;68844;53.128;17.958;2023-09-18T04:10:01;9.80;;;7.60;;
79373;SDS011;68844;53.128;17.958;2023-09-18T04:14:56;11.70;;;8.60;;
79373;SDS011;68844;53.128;17.958;2023-09-18T04:17:23;11.60;;;9.20;;
79373;SDS011;68844;53.128;17.958;2023-09-18T04:19:49;11.80;;;8.70;;
79373;SDS011;68844;53.128;17.958;2023-09-18T04:22:16;11.10;;;8.30;;
79373;SDS011;68844;53.128;17.958;2023-09-18T04:24:42;10.00;;;8.00;;
79373;SDS011;68844;53.128;17.958;2023-09-18T04:27:10;10.50;;;8.30;;
79373;SDS011;68844;53.128;17.958;2023-09-18T04:29:37;13.90;;;8.70;;
79373;SDS011;68844;53.128;17.958;2023-09-18T04:32:03;9.70;;;7.70;;
79373;SDS011;68844;53.128;17.958;2023-09-18T04:34:31;8.20;;;7.00;;
79373;SDS011;68844;53.128;17.958;2023-09-18T04:36:58;12.90;;;8.20;;
79373;SDS011;68844;53.128;17.958;2023-09-18T04:39:25;10.30;;;7.60;;
79373;SDS011;68844;53.128;17.958;2023-09-18T04:41:52;11.30;;;8.30;;
79373;SDS011;68844;53.128;17.958;2023-09-18T04:44:18;11.00;;;7.30;;
79373;SDS011;68844;53.128;17.958;2023-09-18T04:46:45;8.60;;;7.50;;
79373;SDS011;68844;53.128;17.958;2023-09-18T04:49:12;12.00;;;7.80;;
79373;SDS011;68844;53.128;17.958;2023-09-18T04:51:39;12.50;;;8.30;;
79373;SDS011;68844;53.128;17.958;2023-09-18T04:54:06;12.90;;;7.60;;
79373;SDS011;68844;53.128;17.958;2023-09-18T04:56:33;11.50;;;8.60;;
79373;SDS011;68844;53.128;17.958;2023-09-18T04:59:00;8.60;;;5.70;;
79373;SDS011;68844;53.128;17.958;2023-09-18T05:01:27;9.20;;;7.60;;
79373;SDS011;68844;53.128;17.958;2023-09-18T05:03:54;10.30;;;7.40;;
79373;SDS011;68844;53.128;17.958;2023-09-18T05:06:21;10.70;;;8.00;;
79373;SDS011;68844;53.128;17.958;2023-09-18T05:08:47;9.80;;;6.90;;
79373;SDS011;68844;53.128;17.958;2023-09-18T05:11:14;13.20;;;7.30;;
79373;SDS011;68844;53.128;17.958;2023-09-18T05:13:40;9.60;;;7.50;;
79373;SDS011;68844;53.128;17.958;2023-09-18T05:16:07;11.00;;;7.70;;
79373;SDS011;68844;53.128;17.958;2023-09-18T05:18:34;9.70;;;6.40;;
79373;SDS011;68844;53.128;17.958;2023-09-18T05:21:00;10.60;;;7.90;;
79373;SDS011;68844;53.128;17.958;2023-09-18T05:23:28;9.90;;;7.90;;
79373;SDS011;68844;53.128;17.958;2023-09-18T05:25:55;11.30;;;7.00;;
79373;SDS011;68844;53.128;17.958;2023-09-18T05:28:21;11.00;;;7.20;;
79373;SDS011;68844;53.128;17.958;2023-09-18T05:30:48;9.70;;;6.80;;
79373;SDS011;68844;53.128;17.958;2023-09-18T05:33:15;9.30;;;7.50;;
79373;SDS011;68844;53.128;17.958;2023-09-18T05:35:42;7.60;;;6.40;;
79373;SDS011;68844;53.128;17.958;2023-09-18T05:38:11;9.60;;;7.40;;
79373;SDS011;68844;53.128;17.958;2023-09-18T05:40:39;9.30;;;6.50;;
79373;SDS011;68844;53.128;17.958;2023-09-18T05:43:07;8.20;;;6.80;;
79373;SDS011;68844;53.128;17.958;2023-09-18T05:45:34;7.70;;;7.00;;
79373;SDS011;68844;53.128;17.958;2023-09-18T05:48:01;8.60;;;6.90;;
79373;SDS011;68844;53.128;17.958;2023-09-18T05:50:31;9.00;;;6.20;;
79373;SDS011;68844;53.128;17.958;2023-09-18T05:52:59;7.50;;;5.70;;
79373;SDS011;68844;53.128;17.958;2023-09-18T05:55:27;9.70;;;7.50;;
79373;SDS011;68844;53.128;17.958;2023-09-18T05:57:54;8.60;;;7.40;;
79373;SDS011;68844;53.128;17.958;2023-09-18T06:00:21;9.30;;;7.00;;
79373;SDS011;68844;53.128;17.958;2023-09-18T06:02:48;9.20;;;6.10;;
79373;SDS011;68844;53.128;17.958;2023-09-18T06:05:15;9.10;;;7.90;;
79373;SDS011;68844;53.128;17.958;2023-09-18T06:07:42;11.70;;;6.90;;
79373;SDS011;68844;53.128;17.958;2023-09-18T06:10:09;7.50;;;5.70;;
79373;SDS011;68844;53.128;17.958;2023-09-18T06:12:38;13.40;;;7.00;;
79373;SDS011;68844;53.128;17.958;2023-09-18T06:15:06;8.30;;;6.80;;
79373;SDS011;68844;53.128;17.958;2023-09-18T06:17:37;8.20;;;5.40;;
79373;SDS011;68844;53.128;17.958;2023-09-18T06:20:06;7.80;;;7.00;;
79373;SDS011;68844;53.128;17.958;2023-09-18T06:22:37;8.80;;;7.30;;
79373;SDS011;68844;53.128;17.958;2023-09-18T06:25:05;8.60;;;6.50;;
79373;SDS011;68844;53.128;17.958;2023-09-18T06:27:34;9.60;;;7.10;;
79373;SDS011;68844;53.128;17.958;2023-09-18T06:30:02;5.80;;;5.20;;
79373;SDS011;68844;53.128;17.958;2023-09-18T06:32:32;7.70;;;6.80;;
79373;SDS011;68844;53.128;17.958;2023-09-18T06:34:59;8.00;;;6.20;;
79373;SDS011;68844;53.128;17.958;2023-09-18T06:37:26;7.90;;;6.60;;
79373;SDS011;68844;53.128;17.958;2023-09-18T06:39:53;6.40;;;5.80;;
79373;SDS011;68844;53.128;17.958;2023-09-18T06:42:20;8.30;;;5.90;;
79373;SDS011;68844;53.128;17.958;2023-09-18T06:44:53;6.60;;;5.90;;
79373;SDS011;68844;53.128;17.958;2023-09-18T06:47:20;7.10;;;5.30;;
79373;SDS011;68844;53.128;17.958;2023-09-18T06:52:13;7.10;;;5.40;;
79373;SDS011;68844;53.128;17.958;2023-09-18T06:54:40;6.60;;;5.80;;
79373;SDS011;68844;53.128;17.958;2023-09-18T06:57:07;9.80;;;6.60;;
79373;SDS011;68844;53.128;17.958;2023-09-18T06:59:33;8.50;;;5.60;;
79373;SDS011;68844;53.128;17.958;2023-09-18T07:02:00;6.10;;;5.50;;
79373;SDS011;68844;53.128;17.958;2023-09-18T07:04:27;7.60;;;6.40;;
79373;SDS011;68844;53.128;17.958;2023-09-18T07:06:54;6.30;;;5.50;;
79373;SDS011;68844;53.128;17.958;2023-09-18T07:09:22;5.80;;;5.20;;
79373;SDS011;68844;53.128;17.958;2023-09-18T07:11:49;5.30;;;4.70;;
79373;SDS011;68844;53.128;17.958;2023-09-18T07:14:17;6.80;;;5.20;;
79373;SDS011;68844;53.128;17.958;2023-09-18T07:16:43;5.20;;;4.70;;
79373;SDS011;68844;53.128;17.958;2023-09-18T07:19:10;6.50;;;5.70;;
79373;SDS011;68844;53.128;17.958;2023-09-18T07:21:38;5.00;;;4.60;;
79373;SDS011;68844;53.128;17.958;2023-09-18T07:24:06;4.70;;;4.30;;
79373;SDS011;68844;53.128;17.958;2023-09-18T07:26:34;5.30;;;4.20;;
79373;SDS011;68844;53.128;17.958;2023-09-18T07:29:00;5.50;;;4.80;;
79373;SDS011;68844;53.128;17.958;2023-09-18T07:31:27;5.80;;;5.00;;
79373;SDS011;68844;53.128;17.958;2023-09-18T07:33:54;5.20;;;4.60;;
79373;SDS011;68844;53.128;17.958;2023-09-18T07:36:20;5.10;;;4.10;;
79373;SDS011;68844;53.128;17.958;2023-09-18T07:38:47;6.10;;;4.90;;
79373;SDS011;68844;53.128;17.958;2023-09-18T07:41:14;5.10;;;4.50;;
79373;SDS011;68844;53.128;17.958;2023-09-18T07:43:41;4.10;;;3.80;;
79373;SDS011;68844;53.128;17.958;2023-09-18T07:46:08;5.10;;;4.60;;
79373;SDS011;68844;53.128;17.958;2023-09-18T07:48:35;4.00;;;2.90;;
79373;SDS011;68844;53.128;17.958;2023-09-18T07:51:01;5.30;;;4.70;;
79373;SDS011;68844;53.128;17.958;2023-09-18T07:53:28;6.30;;;4.90;;
79373;SDS011;68844;53.128;17.958;2023-09-18T07:55:58;4.90;;;4.50;;
79373;SDS011;68844;53.128;17.958;2023-09-18T07:58:25;6.60;;;4.40;;
79373;SDS011;68844;53.128;17.958;2023-09-18T08:00:56;5.30;;;4.50;;
79373;SDS011;68844;53.128;17.958;2023-09-18T08:03:23;9.50;;;4.80;;
79373;SDS011;68844;53.128;17.958;2023-09-18T08:05:53;7.50;;;4.20;;
79373;SDS011;68844;53.128;17.958;2023-09-18T08:08:20;6.70;;;4.50;;
79373;SDS011;68844;53.128;17.958;2023-09-18T08:10:48;5.20;;;3.80;;
79373;SDS011;68844;53.128;17.958;2023-09-18T08:13:14;5.00;;;3.60;;
79373;SDS011;68844;53.128;17.958;2023-09-18T08:15:42;5.50;;;3.80;;
79373;SDS011;68844;53.128;17.958;2023-09-18T08:18:12;5.40;;;3.60;;
79373;SDS011;68844;53.128;17.958;2023-09-18T08:20:41;4.20;;;3.30;;
79373;SDS011;68844;53.128;17.958;2023-09-18T08:23:09;4.50;;;3.50;;
79373;SDS011;68844;53.128;17.958;2023-09-18T08:25:36;5.90;;;3.90;;
79373;SDS011;68844;53.128;17.958;2023-09-18T08:28:03;4.90;;;3.60;;
79373;SDS011;68844;53.128;17.958;2023-09-18T08:30:30;5.60;;;4.20;;
79373;SDS011;68844;53.128;17.958;2023-09-18T08:32:57;3.90;;;3.20;;
79373;SDS011;68844;53.128;17.958;2023-09-18T08:35:24;4.70;;;3.40;;
79373;SDS011;68844;53.128;17.958;2023-09-18T08:37:55;4.60;;;4.20;;
79373;SDS011;68844;53.128;17.958;2023-09-18T08:40:23;3.50;;;2.80;;
79373;SDS011;68844;53.128;17.958;2023-09-18T08:42:50;4.30;;;3.80;;
79373;SDS011;68844;53.128;17.958;2023-09-18T08:45:23;3.40;;;2.90;;
79373;SDS011;68844;53.128;17.958;2023-09-18T08:47:53;4.80;;;2.80;;
79373;SDS011;68844;53.128;17.958;2023-09-18T08:50:20;3.50;;;3.10;;
79373;SDS011;68844;53.128;17.958;2023-09-18T08:52:48;4.80;;;2.20;;
79373;SDS011;68844;53.128;17.958;2023-09-18T08:55:16;4.20;;;2.90;;
79373;SDS011;68844;53.128;17.958;2023-09-18T08:57:44;6.00;;;3.20;;
79373;SDS011;68844;53.128;17.958;2023-09-18T09:00:12;5.90;;;3.30;;
79373;SDS011;68844;53.128;17.958;2023-09-18T09:02:43;4.20;;;3.20;;
79373;SDS011;68844;53.128;17.958;2023-09-18T09:05:11;3.50;;;2.80;;
79373;SDS011;68844;53.128;17.958;2023-09-18T09:07:38;6.90;;;3.40;;
79373;SDS011;68844;53.128;17.958;2023-09-18T09:10:04;4.20;;;3.00;;
79373;SDS011;68844;53.128;17.958;2023-09-18T09:15:20;3.90;;;3.00;;
79373;SDS011;68844;53.128;17.958;2023-09-18T09:18:01;3.00;;;2.60;;
79373;SDS011;68844;53.128;17.958;2023-09-18T09:20:29;2.90;;;2.20;;
79373;SDS011;68844;53.128;17.958;2023-09-18T09:22:59;4.60;;;2.70;;
79373;SDS011;68844;53.128;17.958;2023-09-18T09:25:28;3.90;;;2.30;;
79373;SDS011;68844;53.128;17.958;2023-09-18T09:27:58;3.90;;;2.60;;
79373;SDS011;68844;53.128;17.958;2023-09-18T09:30:27;5.50;;;2.80;;
79373;SDS011;68844;53.128;17.958;2023-09-18T09:32:56;2.70;;;2.30;;
79373;SDS011;68844;53.128;17.958;2023-09-18T09:37:58;4.60;;;2.50;;
79373;SDS011;68844;53.128;17.958;2023-09-18T09:40:38;2.70;;;1.80;;
79373;SDS011;68844;53.128;17.958;2023-09-18T09:43:07;2.90;;;1.90;;
79373;SDS011;68844;53.128;17.958;2023-09-18T09:45:35;1.90;;;1.70;;
79373;SDS011;68844;53.128;17.958;2023-09-18T09:48:03;2.80;;;1.60;;
79373;SDS011;68844;53.128;17.958;2023-09-18T09:50:32;1.90;;;1.40;;
79373;SDS011;68844;53.128;17.958;2023-09-18T09:53:00;3.00;;;1.80;;
79373;SDS011;68844;53.128;17.958;2023-09-18T09:55:28;1.60;;;1.50;;
79373;SDS011;68844;53.128;17.958;2023-09-18T10:03:10;1.90;;;1.70;;
79373;SDS011;68844;53.128;17.958;2023-09-18T10:05:39;4.30;;;1.80;;
79373;SDS011;68844;53.128;17.958;2023-09-18T10:08:10;3.80;;;1.80;;
79373;SDS011;68844;53.128;17.958;2023-09-18T10:10:49;2.20;;;1.60;;
79373;SDS011;68844;53.128;17.958;2023-09-18T10:13:18;2.70;;;1.70;;
79373;SDS011;68844;53.128;17.958;2023-09-18T10:15:50;1.80;;;1.30;;
79373;SDS011;68844;53.128;17.958;2023-09-18T10:18:27;1.80;;;1.70;;
79373;SDS011;68844;53.128;17.958;2023-09-18T10:26:25;4.30;;;2.00;;
79373;SDS011;68844;53.128;17.958;2023-09-18T10:28:55;2.90;;;1.90;;
79373;SDS011;68844;53.128;17.958;2023-09-18T10:31:29;2.80;;;1.80;;
79373;SDS011;68844;53.128;17.958;2023-09-18T10:33:59;2.30;;;2.10;;
79373;SDS011;68844;53.128;17.958;2023-09-18T10:36:28;4.20;;;1.70;;
79373;SDS011;68844;53.128;17.958;2023-09-18T10:38:58;2.30;;;2.10;;
79373;SDS011;68844;53.128;17.958;2023-09-18T10:41:26;4.00;;;2.20;;
79373;SDS011;68844;53.128;17.958;2023-09-18T10:43:53;4.90;;;2.30;;
79373;SDS011;68844;53.128;17.958;2023-09-18T10:46:20;3.90;;;2.50;;
79373;SDS011;68844;53.128;17.958;2023-09-18T10:48:47;2.90;;;2.10;;
79373;SDS011;68844;53.128;17.958;2023-09-18T10:51:15;2.20;;;2.00;;
79373;SDS011;68844;53.128;17.958;2023-09-18T10:53:50;2.80;;;1.90;;
79373;SDS011;68844;53.128;17.958;2023-09-18T10:56:22;2.50;;;2.00;;
79373;SDS011;68844;53.128;17.958;2023-09-18T10:58:58;4.20;;;2.60;;
79373;SDS011;68844;53.128;17.958;2023-09-18T11:01:27;4.00;;;2.40;;
79373;SDS011;68844;53.128;17.958;2023-09-18T11:04:00;5.10;;;2.10;;
79373;SDS011;68844;53.128;17.958;2023-09-18T11:06:28;2.30;;;2.10;;
79373;SDS011;68844;53.128;17.958;2023-09-18T11:09:07;4.30;;;2.20;;
79373;SDS011;68844;53.128;17.958;2023-09-18T11:11:35;3.00;;;2.40;;
79373;SDS011;68844;53.128;17.958;2023-09-18T11:14:02;3.80;;;2.50;;
79373;SDS011;68844;53.128;17.958;2023-09-18T11:16:34;4.00;;;2.30;;
79373;SDS011;68844;53.128;17.958;2023-09-18T11:21:35;4.60;;;2.70;;
79373;SDS011;68844;53.128;17.958;2023-09-18T11:24:03;2.80;;;2.60;;
79373;SDS011;68844;53.128;17.958;2023-09-18T11:26:33;4.20;;;2.40;;
79373;SDS011;68844;53.128;17.958;2023-09-18T11:29:05;2.70;;;2.40;;
79373;SDS011;68844;53.128;17.958;2023-09-18T11:31:45;3.80;;;2.20;;
79373;SDS011;68844;53.128;17.958;2023-09-18T11:34:14;5.30;;;2.50;;
79373;SDS011;68844;53.128;17.958;2023-09-18T11:36:42;3.10;;;2.60;;
79373;SDS011;68844;53.128;17.958;2023-09-18T11:39:09;3.40;;;2.70;;
79373;SDS011;68844;53.128;17.958;2023-09-18T11:41:38;5.70;;;2.70;;
79373;SDS011;68844;53.128;17.958;2023-09-18T11:46:40;3.60;;;2.60;;
79373;SDS011;68844;53.128;17.958;2023-09-18T11:49:11;3.50;;;2.40;;
79373;SDS011;68844;53.128;17.958;2023-09-18T11:51:43;2.80;;;2.30;;
79373;SDS011;68844;53.128;17.958;2023-09-18T11:54:10;3.50;;;1.90;;
79373;SDS011;68844;53.128;17.958;2023-09-18T11:56:37;4.00;;;2.10;;
79373;SDS011;68844;53.128;17.958;2023-09-18T11:59:06;2.70;;;2.10;;
79373;SDS011;68844;53.128;17.958;2023-09-18T12:01:33;2.90;;;1.40;;
79373;SDS011;68844;53.128;17.958;2023-09-18T12:04:02;2.60;;;1.40;;
79373;SDS011;68844;53.128;17.958;2023-09-18T12:06:38;4.50;;;1.70;;
79373;SDS011;68844;53.128;17.958;2023-09-18T12:09:06;4.20;;;2.00;;
79373;SDS011;68844;53.128;17.958;2023-09-18T12:11:34;3.70;;;1.80;;
79373;SDS011;68844;53.128;17.958;2023-09-18T12:14:04;5.10;;;2.10;;
79373;SDS011;68844;53.128;17.958;2023-09-18T12:16:37;3.00;;;1.90;;
79373;SDS011;68844;53.128;17.958;2023-09-18T12:19:08;3.20;;;2.10;;
79373;SDS011;68844;53.128;17.958;2023-09-18T12:21:42;2.60;;;1.90;;
79373;SDS011;68844;53.128;17.958;2023-09-18T12:24:14;2.10;;;1.80;;
79373;SDS011;68844;53.128;17.958;2023-09-18T12:26:47;1.90;;;1.50;;
79373;SDS011;68844;53.128;17.958;2023-09-18T12:29:14;2.70;;;1.90;;
79373;SDS011;68844;53.128;17.958;2023-09-18T12:31:41;3.70;;;2.30;;
79373;SDS011;68844;53.128;17.958;2023-09-18T12:34:15;2.50;;;2.10;;
79373;SDS011;68844;53.128;17.958;2023-09-18T12:36:46;2.40;;;2.10;;
79373;SDS011;68844;53.128;17.958;2023-09-18T12:39:17;5.30;;;2.50;;
79373;SDS011;68844;53.128;17.958;2023-09-18T12:41:47;3.60;;;2.00;;
79373;SDS011;68844;53.128;17.958;2023-09-18T12:46:43;2.90;;;2.20;;
79373;SDS011;68844;53.128;17.958;2023-09-18T12:51:53;3.00;;;2.40;;
79373;SDS011;68844;53.128;17.958;2023-09-18T12:54:21;2.60;;;2.10;;
79373;SDS011;68844;53.128;17.958;2023-09-18T12:56:47;4.30;;;2.40;;
79373;SDS011;68844;53.128;17.958;2023-09-18T12:59:14;4.10;;;2.70;;
79373;SDS011;68844;53.128;17.958;2023-09-18T13:01:45;1.90;;;1.70;;
79373;SDS011;68844;53.128;17.958;2023-09-18T13:04:14;5.50;;;2.60;;
79373;SDS011;68844;53.128;17.958;2023-09-18T13:06:40;3.20;;;2.50;;
79373;SDS011;68844;53.128;17.958;2023-09-18T13:09:20;4.60;;;2.60;;
79373;SDS011;68844;53.128;17.958;2023-09-18T13:11:56;3.00;;;2.70;;
79373;SDS011;68844;53.128;17.958;2023-09-18T13:14:26;4.20;;;2.70;;
79373;SDS011;68844;53.128;17.958;2023-09-18T13:16:53;2.60;;;2.00;;
79373;SDS011;68844;53.128;17.958;2023-09-18T13:19:20;3.70;;;2.80;;
79373;SDS011;68844;53.128;17.958;2023-09-18T13:21:47;3.50;;;2.00;;
79373;SDS011;68844;53.128;17.958;2023-09-18T13:24:27;4.40;;;2.90;;
79373;SDS011;68844;53.128;17.958;2023-09-18T13:26:56;6.90;;;2.70;;
79373;SDS011;68844;53.128;17.958;2023-09-18T13:29:25;4.00;;;2.30;;
79373;SDS011;68844;53.128;17.958;2023-09-18T13:31:51;4.10;;;2.70;;
79373;SDS011;68844;53.128;17.958;2023-09-18T13:34:18;4.50;;;2.70;;
79373;SDS011;68844;53.128;17.958;2023-09-18T13:36:45;3.20;;;2.50;;
79373;SDS011;68844;53.128;17.958;2023-09-18T13:39:12;4.40;;;2.50;;
79373;SDS011;68844;53.128;17.958;2023-09-18T13:41:41;3.50;;;2.90;;
79373;SDS011;68844;53.128;17.958;2023-09-18T13:44:08;2.70;;;2.50;;
79373;SDS011;68844;53.128;17.958;2023-09-18T13:46:36;3.50;;;2.50;;
79373;SDS011;68844;53.128;17.958;2023-09-18T13:49:04;5.50;;;2.40;;
79373;SDS011;68844;53.128;17.958;2023-09-18T13:51:31;3.40;;;2.40;;
79373;SDS011;68844;53.128;17.958;2023-09-18T13:53:59;3.60;;;2.70;;
79373;SDS011;68844;53.128;17.958;2023-09-18T13:56:26;5.60;;;2.40;;
79373;SDS011;68844;53.128;17.958;2023-09-18T13:58:56;3.00;;;2.50;;
79373;SDS011;68844;53.128;17.958;2023-09-18T14:01:23;5.10;;;2.50;;
79373;SDS011;68844;53.128;17.958;2023-09-18T14:03:54;4.10;;;3.10;;
79373;SDS011;68844;53.128;17.958;2023-09-18T14:06:21;3.70;;;2.50;;
79373;SDS011;68844;53.128;17.958;2023-09-18T14:08:48;3.00;;;2.30;;
79373;SDS011;68844;53.128;17.958;2023-09-18T14:11:15;3.70;;;2.60;;
79373;SDS011;68844;53.128;17.958;2023-09-18T14:13:42;4.50;;;2.40;;
79373;SDS011;68844;53.128;17.958;2023-09-18T14:16:09;3.60;;;2.60;;
79373;SDS011;68844;53.128;17.958;2023-09-18T14:18:37;3.80;;;3.00;;
79373;SDS011;68844;53.128;17.958;2023-09-18T14:21:03;3.80;;;2.50;;
79373;SDS011;68844;53.128;17.958;2023-09-18T14:23:31;3.00;;;2.30;;
79373;SDS011;68844;53.128;17.958;2023-09-18T14:26:00;3.00;;;1.90;;
79373;SDS011;68844;53.128;17.958;2023-09-18T14:28:27;4.20;;;2.60;;
79373;SDS011;68844;53.128;17.958;2023-09-18T14:30:54;3.10;;;2.40;;
79373;SDS011;68844;53.128;17.958;2023-09-18T14:33:20;4.20;;;2.70;;
79373;SDS011;68844;53.128;17.958;2023-09-18T14:35:47;2.70;;;2.40;;
79373;SDS011;68844;53.128;17.958;2023-09-18T14:38:14;4.00;;;2.70;;
79373;SDS011;68844;53.128;17.958;2023-09-18T14:40:41;3.60;;;2.90;;
79373;SDS011;68844;53.128;17.958;2023-09-18T14:43:08;4.00;;;3.50;;
79373;SDS011;68844;53.128;17.958;2023-09-18T14:45:35;6.90;;;3.40;;
79373;SDS011;68844;53.128;17.958;2023-09-18T14:48:02;4.30;;;3.20;;
79373;SDS011;68844;53.128;17.958;2023-09-18T14:50:29;6.00;;;3.50;;
79373;SDS011;68844;53.128;17.958;2023-09-18T14:52:55;3.70;;;3.40;;
79373;SDS011;68844;53.128;17.958;2023-09-18T14:55:22;6.20;;;3.80;;
79373;SDS011;68844;53.128;17.958;2023-09-18T14:57:49;4.30;;;3.40;;
79373;SDS011;68844;53.128;17.958;2023-09-18T15:00:17;5.80;;;4.00;;
79373;SDS011;68844;53.128;17.958;2023-09-18T15:02:43;4.80;;;3.40;;
79373;SDS011;68844;53.128;17.958;2023-09-18T15:05:10;5.00;;;3.20;;
79373;SDS011;68844;53.128;17.958;2023-09-18T15:07:39;6.90;;;3.40;;
79373;SDS011;68844;53.128;17.958;2023-09-18T15:10:06;5.70;;;3.30;;
79373;SDS011;68844;53.128;17.958;2023-09-18T15:12:34;3.10;;;2.80;;
79373;SDS011;68844;53.128;17.958;2023-09-18T15:15:01;3.80;;;3.40;;
79373;SDS011;68844;53.128;17.958;2023-09-18T15:17:28;6.10;;;4.10;;
79373;SDS011;68844;53.128;17.958;2023-09-18T15:19:55;5.70;;;4.10;;
79373;SDS011;68844;53.128;17.958;2023-09-18T15:22:22;6.50;;;4.40;;